createdAt,value
2023-02-09T00:02:12.207Z,93.50
2023-02-09T00:05:13.894Z,93.40
2023-02-09T00:08:15.403Z,93.50
2023-02-09T00:11:21.559Z,93.50
2023-02-09T00:14:23.113Z,92.80
2023-02-09T00:17:24.801Z,93.40
2023-02-09T00:20:26.680Z,93.40
2023-02-09T00:23:29.043Z,93.30
2023-02-09T00:26:30.921Z,93.40
2023-02-09T00:29:32.452Z,93.40
2023-02-09T00:32:34.013Z,93.20
2023-02-09T00:35:39.630Z,93.30
2023-02-09T00:38:41.759Z,93.20
2023-02-09T00:42:02.029Z,93.50
2023-02-09T00:45:03.833Z,92.60
2023-02-09T00:48:05.499Z,93.30
2023-02-09T00:51:07.010Z,93.40
2023-02-09T00:54:08.525Z,93.40
2023-02-09T00:57:10.213Z,93.30
2023-02-09T01:00:13.942Z,93.30
2023-02-09T01:03:15.473Z,92.70
2023-02-09T01:06:17.131Z,93.30
2023-02-09T01:09:18.644Z,93.30
2023-02-09T01:12:20.314Z,93.30
2023-02-09T01:15:21.850Z,93.20
2023-02-09T01:18:23.535Z,93.10
2023-02-09T01:21:25.118Z,93.20
2023-02-09T01:24:26.640Z,93.50
2023-02-09T01:27:28.105Z,93.10
2023-02-09T01:30:30.165Z,93.00
2023-02-09T01:33:31.942Z,93.10
2023-02-09T01:36:33.562Z,93.20
2023-02-09T01:39:35.264Z,93.20
2023-02-09T01:42:37.150Z,93.50
2023-02-09T01:45:54.534Z,93.20
2023-02-09T01:49:02.693Z,92.70
2023-02-09T01:52:06.474Z,92.60
2023-02-09T01:55:10.556Z,93.20
2023-02-09T01:58:13.999Z,93.10
2023-02-09T02:01:16.178Z,93.10
2023-02-09T02:04:17.717Z,93.00
2023-02-09T02:07:22.931Z,93.10
2023-02-09T02:10:24.774Z,93.00
2023-02-09T02:13:26.297Z,93.10
2023-02-09T02:16:45.679Z,93.10
2023-02-09T02:19:59.413Z,92.40
2023-02-09T02:23:19.858Z,92.50
2023-02-09T02:26:33.242Z,92.70
2023-02-09T02:29:34.688Z,93.30
2023-02-09T02:32:39.042Z,93.20
2023-02-09T02:35:46.758Z,92.70
2023-02-09T02:39:02.917Z,92.70
2023-02-09T02:42:26.436Z,92.70
2023-02-09T02:45:48.193Z,92.60
2023-02-09T02:48:49.650Z,93.30
2023-02-09T02:51:53.548Z,93.20
2023-02-09T02:55:02.419Z,93.70
2023-02-09T02:58:06.117Z,92.60
2023-02-09T03:01:09.734Z,93.40
2023-02-09T03:04:12.398Z,93.40
2023-02-09T03:07:16.641Z,93.30
2023-02-09T03:10:24.434Z,93.40
2023-02-09T03:13:33.321Z,92.60
2023-02-09T03:16:51.582Z,92.80
2023-02-09T03:19:57.789Z,92.80
2023-02-09T03:23:02.369Z,93.40
2023-02-09T03:26:07.370Z,93.30
2023-02-09T03:29:09.711Z,93.30
2023-02-09T03:32:11.417Z,93.40
2023-02-09T03:35:15.036Z,93.10
2023-02-09T03:38:16.724Z,93.30
2023-02-09T03:41:18.219Z,93.40
2023-02-09T03:44:31.962Z,93.30
2023-02-09T03:47:33.790Z,93.20
2023-02-09T03:50:35.962Z,93.40
2023-02-09T03:53:37.518Z,93.30
2023-02-09T03:56:38.986Z,93.20
2023-02-09T03:59:40.933Z,93.30
2023-02-09T04:02:42.799Z,93.00
2023-02-09T04:05:44.651Z,93.10
2023-02-09T04:08:46.164Z,92.90
2023-02-09T04:11:47.788Z,93.10
2023-02-09T04:14:49.246Z,93.10
2023-02-09T04:17:50.960Z,93.10
2023-02-09T04:20:52.580Z,93.00
2023-02-09T04:23:54.297Z,93.00
2023-02-09T04:26:55.869Z,92.80
2023-02-09T04:29:57.506Z,93.00
2023-02-09T04:32:59.004Z,93.00
2023-02-09T04:36:00.562Z,93.00
2023-02-09T04:39:02.050Z,93.00
2023-02-09T04:42:03.552Z,93.10
2023-02-09T04:45:07.639Z,93.10
2023-02-09T04:48:13.122Z,93.10
2023-02-09T04:51:14.966Z,93.20
2023-02-09T04:54:16.760Z,93.00
2023-02-09T04:57:37.044Z,93.00
2023-02-09T05:00:40.710Z,93.20
2023-02-09T05:03:42.693Z,92.90
2023-02-09T05:06:44.325Z,93.50
2023-02-09T05:09:46.044Z,93.00
2023-02-09T05:12:47.595Z,93.00
2023-02-09T05:15:49.358Z,93.00
2023-02-09T05:18:51.037Z,93.10
2023-02-09T05:21:52.520Z,93.00
2023-02-09T05:24:54.053Z,93.00
2023-02-09T05:27:55.627Z,93.00
2023-02-09T05:30:57.110Z,93.10
2023-02-09T05:33:58.594Z,93.10
2023-02-09T05:37:00.452Z,93.00
2023-02-09T05:40:01.976Z,93.00
2023-02-09T05:43:03.480Z,93.00
2023-02-09T05:46:08.068Z,93.10
2023-02-09T05:49:09.863Z,93.10
2023-02-09T05:52:11.989Z,93.10
2023-02-09T05:55:13.582Z,93.00
2023-02-09T05:58:15.162Z,93.00
2023-02-09T06:01:16.747Z,93.10
2023-02-09T06:04:18.297Z,93.00
2023-02-09T06:07:19.793Z,93.00
2023-02-09T06:10:21.313Z,93.00
2023-02-09T06:13:22.941Z,93.00
2023-02-09T06:16:24.467Z,93.10
2023-02-09T06:19:25.990Z,92.90
2023-02-09T06:22:29.268Z,93.10
2023-02-09T06:25:30.743Z,93.10
2023-02-09T06:28:32.242Z,93.00
2023-02-09T06:31:34.348Z,93.10
2023-02-09T06:34:35.862Z,93.10
2023-02-09T06:37:37.369Z,93.10
2023-02-09T06:40:39.042Z,93.10
2023-02-09T06:43:40.534Z,93.10
2023-02-09T06:46:42.060Z,93.20
2023-02-09T06:49:43.570Z,93.20
2023-02-09T06:52:45.285Z,93.20
2023-02-09T06:55:46.770Z,93.30
2023-02-09T06:58:48.295Z,93.20
2023-02-09T07:01:52.796Z,93.30
2023-02-09T07:04:57.506Z,93.20
2023-02-09T07:07:59.230Z,93.30
2023-02-09T07:11:01.435Z,93.20
2023-02-09T07:14:02.969Z,93.20
2023-02-09T07:17:04.454Z,93.20
2023-02-09T07:20:06.616Z,93.20
2023-02-09T07:23:08.149Z,93.30
2023-02-09T07:26:13.194Z,93.30
2023-02-09T07:29:14.697Z,93.20
2023-02-09T07:32:16.318Z,93.10
2023-02-09T07:35:17.927Z,93.10
2023-02-09T07:38:19.389Z,93.10
2023-02-09T07:41:21.905Z,92.90
2023-02-09T07:44:24.122Z,93.10
2023-02-09T07:47:25.645Z,93.00
2023-02-09T07:50:27.155Z,93.20
2023-02-09T07:53:28.946Z,92.80
2023-02-09T07:56:30.539Z,92.70
2023-02-09T07:59:32.065Z,92.80
2023-02-09T08:02:36.732Z,92.70
2023-02-09T08:05:55.280Z,92.10
2023-02-09T08:08:56.810Z,92.10
2023-02-09T08:12:02.695Z,92.60
2023-02-09T08:15:04.855Z,92.10
2023-02-09T08:18:10.206Z,92.60
2023-02-09T08:21:14.128Z,92.60
2023-02-09T08:24:16.733Z,92.60
2023-02-09T08:27:18.281Z,92.70
2023-02-09T08:30:19.934Z,92.70
2023-02-09T08:33:21.499Z,92.70
2023-02-09T08:36:23.068Z,92.60
2023-02-09T08:39:24.532Z,92.70
2023-02-09T08:42:26.036Z,92.80
2023-02-09T08:45:27.759Z,92.80
2023-02-09T08:48:35.692Z,92.60
2023-02-09T08:51:37.453Z,92.00
2023-02-09T08:54:39.047Z,92.50
2023-02-09T08:57:44.450Z,92.70
2023-02-09T09:00:46.505Z,92.60
2023-02-09T09:03:48.159Z,92.50
2023-02-09T09:06:49.983Z,92.70
2023-02-09T09:09:51.459Z,92.30
2023-02-09T09:12:52.961Z,92.40
2023-02-09T09:15:57.392Z,92.30
2023-02-09T09:18:59.024Z,92.00
2023-02-09T09:22:02.522Z,92.40
2023-02-09T09:25:04.629Z,92.30
2023-02-09T09:28:06.465Z,92.30
2023-02-09T09:31:08.945Z,92.30
2023-02-09T09:34:10.511Z,92.30
2023-02-09T09:37:12.033Z,92.30
2023-02-09T09:40:19.243Z,92.20
2023-02-09T09:43:27.159Z,92.20
2023-02-09T09:46:39.198Z,91.50
2023-02-09T09:49:40.773Z,91.50
2023-02-09T09:52:44.431Z,92.30
2023-02-09T09:55:45.996Z,92.20
2023-02-09T09:58:47.986Z,92.10
2023-02-09T10:01:51.044Z,92.00
2023-02-09T10:04:53.876Z,92.00
2023-02-09T10:08:01.481Z,92.20
2023-02-09T10:11:04.833Z,91.40
2023-02-09T10:14:06.674Z,91.80
2023-02-09T10:17:08.262Z,91.80
2023-02-09T10:20:11.725Z,91.80
2023-02-09T10:23:16.260Z,91.50
2023-02-09T10:26:19.874Z,91.10
2023-02-09T10:29:23.414Z,91.70
2023-02-09T10:32:39.890Z,91.80
2023-02-09T10:35:44.148Z,91.00
2023-02-09T10:38:45.776Z,91.60
2023-02-09T10:41:48.964Z,91.50
2023-02-09T10:44:52.580Z,91.60
2023-02-09T10:47:59.171Z,91.60
2023-02-09T10:51:05.104Z,90.80
2023-02-09T10:54:08.026Z,91.60
2023-02-09T10:57:21.471Z,91.50
2023-02-09T11:00:31.996Z,90.90
2023-02-09T11:03:33.532Z,90.90
2023-02-09T11:06:48.254Z,91.40
2023-02-09T11:09:51.049Z,90.90
2023-02-09T11:12:52.600Z,91.40
2023-02-09T11:16:17.204Z,91.30
2023-02-09T11:19:18.656Z,90.70
2023-02-09T11:22:38.938Z,91.70
2023-02-09T11:25:48.254Z,90.90
2023-02-09T11:29:08.629Z,90.50
2023-02-09T11:32:19.288Z,90.50
2023-02-09T11:35:23.832Z,90.60
2023-02-09T11:38:35.349Z,91.20
2023-02-09T11:42:04.173Z,91.30
2023-02-09T11:45:11.039Z,90.40
2023-02-09T11:48:12.502Z,91.10
2023-02-09T11:51:18.958Z,91.10
2023-02-09T11:54:22.897Z,90.60
2023-02-09T11:57:33.151Z,91.10
2023-02-09T12:00:52.618Z,90.40
2023-02-09T12:04:09.709Z,91.10
2023-02-09T12:07:32.735Z,90.40
2023-02-09T12:10:42.897Z,90.50
2023-02-09T12:13:44.362Z,90.50
2023-02-09T12:16:49.067Z,91.10
2023-02-09T12:19:56.089Z,91.00
2023-02-09T12:23:16.201Z,90.40
2023-02-09T12:26:17.653Z,90.40
2023-02-09T12:29:24.960Z,91.00
2023-02-09T12:32:30.551Z,90.40
2023-02-09T12:35:38.987Z,91.20
2023-02-09T12:39:07.171Z,90.60
2023-02-09T12:42:08.636Z,90.40
2023-02-09T12:45:29.099Z,90.90
2023-02-09T12:48:30.696Z,90.30
2023-02-09T12:51:41.195Z,90.90
2023-02-09T12:54:49.078Z,90.20
2023-02-09T12:57:51.236Z,90.20
2023-02-09T13:00:53.937Z,90.70
2023-02-09T13:04:01.468Z,90.70
2023-02-09T13:07:05.687Z,90.90
2023-02-09T13:10:14.214Z,90.80
2023-02-09T13:13:21.378Z,90.60
2023-02-09T13:16:22.967Z,90.10
2023-02-09T13:19:36.430Z,90.80
2023-02-09T13:22:52.514Z,90.90
2023-02-09T13:26:00.373Z,91.00
2023-02-09T13:29:19.860Z,91.10
2023-02-09T13:32:22.669Z,90.60
2023-02-09T13:35:27.028Z,90.80
2023-02-09T13:38:30.540Z,90.20
2023-02-09T13:41:35.390Z,90.90
2023-02-09T13:44:43.534Z,91.00
2023-02-09T13:47:45.165Z,90.80
2023-02-09T13:50:47.599Z,90.80
2023-02-09T13:53:56.023Z,90.70
2023-02-09T13:56:59.707Z,90.00
2023-02-09T14:00:19.623Z,90.50
2023-02-09T14:03:29.362Z,89.60
2023-02-09T14:06:39.122Z,89.90
2023-02-09T14:09:45.592Z,89.40
2023-02-09T14:12:55.577Z,90.50
2023-02-09T14:16:07.931Z,90.60
2023-02-09T14:19:26.852Z,90.70
2023-02-09T14:22:29.711Z,90.20
2023-02-09T14:25:31.300Z,90.80
2023-02-09T14:28:33.742Z,91.20
2023-02-09T14:31:35.637Z,90.60
2023-02-09T14:34:38.475Z,90.90
2023-02-09T14:37:40.583Z,91.00
2023-02-09T14:40:42.147Z,90.90
2023-02-09T14:43:43.775Z,90.80
2023-02-09T14:46:46.644Z,91.00
2023-02-09T14:49:48.181Z,91.00
2023-02-09T14:52:53.064Z,91.10
2023-02-09T14:55:54.872Z,91.00
2023-02-09T14:58:56.574Z,91.10
2023-02-09T15:01:58.162Z,90.90
2023-02-09T15:05:00.147Z,91.10
2023-02-09T15:08:05.708Z,91.10
2023-02-09T15:11:27.803Z,91.00
2023-02-09T15:14:29.366Z,91.10
2023-02-09T15:17:31.283Z,91.10
2023-02-09T15:20:33.108Z,91.10
2023-02-09T15:23:34.614Z,91.20
2023-02-09T15:26:36.422Z,91.50
2023-02-09T15:29:37.945Z,91.60
2023-02-09T15:32:39.445Z,91.20
2023-02-09T15:35:41.258Z,91.30
2023-02-09T15:38:42.739Z,91.30
2023-02-09T15:42:02.897Z,91.70
2023-02-09T15:45:49.282Z,90.60
2023-02-09T15:48:50.768Z,90.70
2023-02-09T15:51:52.321Z,91.30
2023-02-09T15:54:53.909Z,91.40
2023-02-09T15:57:55.601Z,91.40
2023-02-09T16:00:57.429Z,91.50
2023-02-09T16:04:12.899Z,91.90
2023-02-09T16:07:18.702Z,91.60
2023-02-09T16:10:28.903Z,91.50
2023-02-09T16:13:30.418Z,90.90
2023-02-09T16:16:32.946Z,91.70
2023-02-09T16:19:34.609Z,91.70
2023-02-09T16:22:36.751Z,92.00
2023-02-09T16:25:38.266Z,91.70
2023-02-09T16:28:39.848Z,91.80
2023-02-09T16:31:41.388Z,91.70
2023-02-09T16:34:43.231Z,91.70
2023-02-09T16:37:45.754Z,91.80
2023-02-09T16:40:47.312Z,91.90
2023-02-09T16:43:48.804Z,91.80
2023-02-09T16:46:56.286Z,91.80
2023-02-09T16:49:59.339Z,91.10
2023-02-09T16:53:02.842Z,91.70
2023-02-09T16:56:06.310Z,91.70
2023-02-09T16:59:10.938Z,91.40
2023-02-09T17:02:32.866Z,91.60
2023-02-09T17:05:36.126Z,90.70
2023-02-09T17:08:39.029Z,91.70
2023-02-09T17:11:40.646Z,91.90
2023-02-09T17:14:42.177Z,91.70
2023-02-09T17:17:45.566Z,91.70
2023-02-09T17:20:49.844Z,91.70
2023-02-09T17:23:51.940Z,91.60
2023-02-09T17:26:53.428Z,91.60
2023-02-09T17:29:54.940Z,91.50
2023-02-09T17:33:01.409Z,91.40
2023-02-09T17:36:26.423Z,90.70
2023-02-09T17:39:24.909Z,91.40
2023-02-09T17:42:26.381Z,91.40
2023-02-09T17:45:34.454Z,91.40
2023-02-09T17:48:36.062Z,91.40
2023-02-09T17:51:39.656Z,91.60
2023-02-09T17:54:41.224Z,91.40
2023-02-09T17:57:42.748Z,91.30
2023-02-09T18:00:44.797Z,91.20
2023-02-09T18:03:46.305Z,91.20
2023-02-09T18:06:47.904Z,91.40
2023-02-09T18:09:49.474Z,91.10
2023-02-09T18:12:50.960Z,91.30
2023-02-09T18:15:52.395Z,91.00
2023-02-09T18:18:53.875Z,91.10
2023-02-09T18:21:59.465Z,91.10
2023-02-09T18:25:01.131Z,90.40
2023-02-09T18:28:03.802Z,91.50
2023-02-09T18:31:06.228Z,91.10
2023-02-09T18:34:08.086Z,91.10
2023-02-09T18:37:09.626Z,91.10
2023-02-09T18:40:11.146Z,91.10
2023-02-09T18:43:14.550Z,91.00
2023-02-09T18:46:16.209Z,91.30
2023-02-09T18:49:17.741Z,91.10
2023-02-09T18:52:20.914Z,91.10
2023-02-09T18:55:29.150Z,91.10
2023-02-09T18:58:34.993Z,91.10
2023-02-09T19:01:38.968Z,91.50
2023-02-09T19:04:43.784Z,90.80
2023-02-09T19:07:48.493Z,91.50
2023-02-09T19:11:11.924Z,92.30
2023-02-09T19:14:33.812Z,91.80
2023-02-09T19:17:35.723Z,90.90
2023-02-09T19:20:39.858Z,91.90
2023-02-09T19:23:45.774Z,92.20
2023-02-09T19:26:50.073Z,90.60
2023-02-09T19:29:58.581Z,93.00
2023-02-09T19:33:05.675Z,90.50
2023-02-09T19:36:16.405Z,91.60
2023-02-09T19:39:19.045Z,91.50
2023-02-09T19:42:21.168Z,91.10
2023-02-09T19:45:23.197Z,91.10
2023-02-09T19:48:25.149Z,91.10
2023-02-09T19:51:26.627Z,91.20
2023-02-09T19:54:28.089Z,91.10
2023-02-09T19:57:29.621Z,91.10
2023-02-09T20:00:31.322Z,91.10
2023-02-09T20:03:32.861Z,91.30
2023-02-09T20:06:34.410Z,91.10
2023-02-09T20:09:36.211Z,91.20
2023-02-09T20:12:37.697Z,91.10
2023-02-09T20:15:42.743Z,91.10
2023-02-09T20:18:46.562Z,91.20
2023-02-09T20:21:48.146Z,91.10
2023-02-09T20:24:49.650Z,91.20
2023-02-09T20:27:51.407Z,91.30
2023-02-09T20:30:52.862Z,91.00
2023-02-09T20:33:54.587Z,91.40
2023-02-09T20:36:57.336Z,91.30
2023-02-09T20:39:59.158Z,91.30
2023-02-09T20:43:19.478Z,91.30
2023-02-09T20:47:00.330Z,90.90
2023-02-09T20:50:01.925Z,91.40
2023-02-09T20:53:03.454Z,91.30
2023-02-09T20:56:05.193Z,91.30
2023-02-09T20:59:06.769Z,91.00
2023-02-09T21:02:09.955Z,91.20
2023-02-09T21:05:11.486Z,91.30
2023-02-09T21:08:13.026Z,91.30
2023-02-09T21:11:15.854Z,92.00
2023-02-09T21:14:27.321Z,91.30
2023-02-09T21:17:34.179Z,91.30
2023-02-09T21:20:35.827Z,91.30
2023-02-09T21:23:37.347Z,91.30
2023-02-09T21:26:41.207Z,91.40
2023-02-09T21:29:42.758Z,91.30
2023-02-09T21:32:44.238Z,91.30
2023-02-09T21:35:45.860Z,91.40
2023-02-09T21:38:47.441Z,91.40
2023-02-09T21:42:07.802Z,91.30
2023-02-09T21:45:09.884Z,90.90
2023-02-09T21:48:11.368Z,91.30
2023-02-09T21:51:12.847Z,91.50
2023-02-09T21:54:17.837Z,91.30
2023-02-09T21:57:19.871Z,90.80
2023-02-09T22:00:21.380Z,91.40
2023-02-09T22:03:22.863Z,91.40
2023-02-09T22:06:25.054Z,91.50
2023-02-09T22:09:26.584Z,92.00
2023-02-09T22:12:28.525Z,91.20
2023-02-09T22:15:30.029Z,91.40
2023-02-09T22:18:31.936Z,91.30
2023-02-09T22:21:33.888Z,91.00
2023-02-09T22:24:35.488Z,91.00
2023-02-09T22:27:37.006Z,91.40
2023-02-09T22:30:38.494Z,91.30
2023-02-09T22:33:40.101Z,91.40
2023-02-09T22:36:41.576Z,91.40
2023-02-09T22:39:44.875Z,91.40
2023-02-09T22:42:46.372Z,91.50
2023-02-09T22:45:54.079Z,91.40
2023-02-09T22:48:56.865Z,91.50
2023-02-09T22:51:58.340Z,91.50
2023-02-09T22:55:00.097Z,91.40
2023-02-09T22:58:01.577Z,91.50
2023-02-09T23:01:03.173Z,91.50
2023-02-09T23:04:04.770Z,91.60
2023-02-09T23:07:06.667Z,91.50
2023-02-09T23:10:08.260Z,91.50
2023-02-09T23:13:09.796Z,91.40
2023-02-09T23:16:12.821Z,91.60
2023-02-09T23:19:18.486Z,91.60
2023-02-09T23:22:20.022Z,90.90
2023-02-09T23:25:24.221Z,91.70
2023-02-09T23:28:25.796Z,91.70
2023-02-09T23:31:28.024Z,91.60
2023-02-09T23:34:29.574Z,92.00
2023-02-09T23:37:37.575Z,91.80
2023-02-09T23:40:39.727Z,92.00
2023-02-09T23:43:41.535Z,91.90
2023-02-09T23:46:43.282Z,91.60
2023-02-09T23:49:44.848Z,91.70
2023-02-09T23:52:46.370Z,91.70
2023-02-09T23:55:51.383Z,91.60
2023-02-09T23:58:53.541Z,91.00
